createdAt,value
2023-01-20T00:00:33.750Z,91.85
2023-01-20T00:01:33.687Z,92.16
2023-01-20T00:02:33.696Z,91.96
2023-01-20T00:03:33.695Z,91.85
2023-01-20T00:04:54.646Z,92.16
2023-01-20T00:05:33.638Z,92.27
2023-01-20T00:06:33.615Z,92.37
2023-01-20T00:07:33.603Z,92.16
2023-01-20T00:08:33.591Z,92.47
2023-01-20T00:09:33.623Z,92.47
2023-01-20T00:10:54.568Z,92.27
2023-01-20T00:11:33.576Z,92.27
2023-01-20T00:12:33.555Z,92.16
2023-01-20T00:13:33.544Z,92.47
2023-01-20T00:14:33.516Z,92.21
2023-01-20T00:15:33.497Z,92.58
2023-01-20T00:16:54.493Z,92.58
2023-01-20T00:17:33.480Z,92.62
2023-01-20T00:18:33.494Z,92.58
2023-01-20T00:19:33.450Z,92.68
2023-01-20T00:20:33.437Z,92.68
2023-01-20T00:21:33.422Z,92.58
2023-01-20T00:22:54.408Z,92.79
2023-01-20T00:23:33.403Z,92.58
2023-01-20T00:24:33.394Z,92.68
2023-01-20T00:25:33.369Z,93.10
2023-01-20T00:26:33.364Z,92.89
2023-01-20T00:27:33.342Z,92.89
2023-01-20T00:28:54.330Z,92.68
2023-01-20T00:29:33.372Z,92.58
2023-01-20T00:30:33.305Z,92.58
2023-01-20T00:31:33.473Z,92.58
2023-01-20T00:32:33.278Z,92.62
2023-01-20T00:33:33.267Z,92.89
2023-01-20T00:34:54.251Z,92.58
2023-01-20T00:35:33.239Z,92.58
2023-01-20T00:36:33.228Z,92.89
2023-01-20T00:37:33.215Z,92.89
2023-01-20T00:38:33.198Z,92.79
2023-01-20T00:39:33.193Z,92.89
2023-01-20T00:40:54.176Z,92.68
2023-01-20T00:41:33.161Z,92.99
2023-01-20T00:42:33.154Z,92.89
2023-01-20T00:43:33.136Z,92.79
2023-01-20T00:44:33.118Z,92.89
2023-01-20T00:45:33.114Z,92.79
2023-01-20T00:46:54.189Z,92.89
2023-01-20T00:47:33.086Z,92.58
2023-01-20T00:48:33.068Z,92.58
2023-01-20T00:49:33.057Z,92.68
2023-01-20T00:50:33.052Z,92.52
2023-01-20T00:51:33.052Z,92.62
2023-01-20T00:52:54.027Z,92.58
2023-01-20T00:53:33.004Z,92.89
2023-01-20T00:54:32.988Z,92.83
2023-01-20T00:55:32.985Z,92.99
2023-01-20T00:56:33.009Z,93.04
2023-01-20T00:57:32.956Z,92.93
2023-01-20T00:58:53.939Z,92.93
2023-01-20T00:59:32.926Z,92.68
2023-01-20T01:00:32.938Z,92.41
2023-01-20T01:01:33.000Z,92.47
2023-01-20T01:02:32.942Z,92.31
2023-01-20T01:03:32.887Z,92.37
2023-01-20T01:04:53.867Z,92.58
2023-01-20T01:05:32.867Z,92.41
2023-01-20T01:06:32.829Z,92.52
2023-01-20T01:07:32.829Z,92.62
2023-01-20T01:08:32.808Z,92.41
2023-01-20T01:09:32.794Z,92.58
2023-01-20T01:10:53.783Z,92.31
2023-01-20T01:11:32.766Z,92.41
2023-01-20T01:12:32.754Z,92.21
2023-01-20T01:13:32.752Z,92.31
2023-01-20T01:14:32.728Z,92.31
2023-01-20T01:15:32.714Z,92.21
2023-01-20T01:16:54.950Z,92.21
2023-01-20T01:17:32.701Z,92.31
2023-01-20T01:18:32.683Z,92.31
2023-01-20T01:19:32.663Z,92.31
2023-01-20T01:20:32.644Z,92.21
2023-01-20T01:21:32.643Z,92.21
2023-01-20T01:22:53.628Z,92.21
2023-01-20T01:23:32.610Z,92.21
2023-01-20T01:24:32.638Z,92.00
2023-01-20T01:25:32.583Z,92.21
2023-01-20T01:26:32.563Z,92.10
2023-01-20T01:27:32.551Z,92.21
2023-01-20T01:28:53.556Z,92.41
2023-01-20T01:29:32.544Z,92.10
2023-01-20T01:30:32.520Z,92.25
2023-01-20T01:31:32.557Z,92.14
2023-01-20T01:32:32.487Z,92.35
2023-01-20T01:33:32.484Z,92.25
2023-01-20T01:34:53.472Z,92.03
2023-01-20T01:35:32.455Z,92.35
2023-01-20T01:36:32.444Z,92.35
2023-01-20T01:37:32.417Z,92.56
2023-01-20T01:38:32.412Z,92.35
2023-01-20T01:39:32.391Z,92.46
2023-01-20T01:40:53.391Z,92.14
2023-01-20T01:41:32.363Z,92.46
2023-01-20T01:42:32.359Z,92.87
2023-01-20T01:43:32.337Z,92.91
2023-01-20T01:44:32.325Z,92.91
2023-01-20T01:45:32.342Z,93.23
2023-01-20T01:46:53.304Z,92.91
2023-01-20T01:47:32.283Z,93.02
2023-01-20T01:48:32.275Z,93.02
2023-01-20T01:49:32.254Z,93.12
2023-01-20T01:50:32.245Z,92.81
2023-01-20T01:51:32.232Z,93.33
2023-01-20T01:52:53.227Z,93.02
2023-01-20T01:53:32.203Z,93.33
2023-01-20T01:54:32.188Z,93.06
2023-01-20T01:55:32.183Z,93.02
2023-01-20T01:56:32.171Z,93.06
2023-01-20T01:57:32.148Z,93.23
2023-01-20T01:58:53.143Z,93.16
2023-01-20T01:59:32.133Z,93.16
2023-01-20T02:00:32.211Z,93.37
2023-01-20T02:01:32.190Z,93.48
2023-01-20T02:02:32.104Z,93.69
2023-01-20T02:03:32.070Z,93.65
2023-01-20T02:04:53.059Z,93.59
2023-01-20T02:05:32.048Z,94.00
2023-01-20T02:06:32.037Z,94.10
2023-01-20T02:07:32.020Z,94.17
2023-01-20T02:08:32.013Z,93.90
2023-01-20T02:09:32.003Z,93.75
2023-01-20T02:10:52.982Z,93.44
2023-01-20T02:11:31.966Z,93.33
2023-01-20T02:12:31.946Z,93.33
2023-01-20T02:13:31.937Z,93.12
2023-01-20T02:14:31.920Z,93.79
2023-01-20T02:15:31.925Z,93.75
2023-01-20T02:16:52.899Z,94.06
2023-01-20T02:17:31.886Z,93.96
2023-01-20T02:18:31.866Z,93.85
2023-01-20T02:19:31.857Z,94.06
2023-01-20T02:20:31.843Z,94.17
2023-01-20T02:21:31.840Z,93.96
2023-01-20T02:22:52.847Z,94.27
2023-01-20T02:23:31.801Z,93.54
2023-01-20T02:24:31.787Z,93.54
2023-01-20T02:25:31.778Z,93.44
2023-01-20T02:26:31.759Z,93.33
2023-01-20T02:27:31.754Z,93.75
2023-01-20T02:28:52.733Z,93.54
2023-01-20T02:29:31.718Z,93.75
2023-01-20T02:30:31.733Z,93.54
2023-01-20T02:31:31.732Z,93.33
2023-01-20T02:32:31.680Z,93.23
2023-01-20T02:33:31.665Z,93.54
2023-01-20T02:34:52.651Z,93.02
2023-01-20T02:35:31.645Z,93.02
2023-01-20T02:36:31.625Z,93.12
2023-01-20T02:37:31.611Z,93.02
2023-01-20T02:38:31.599Z,93.23
2023-01-20T02:39:31.583Z,92.77
2023-01-20T02:40:52.572Z,93.02
2023-01-20T02:41:31.559Z,92.91
2023-01-20T02:42:31.541Z,92.91
2023-01-20T02:43:31.542Z,92.91
2023-01-20T02:44:31.514Z,92.91
2023-01-20T02:45:31.569Z,92.91
2023-01-20T02:46:52.536Z,92.91
2023-01-20T02:47:31.480Z,92.60
2023-01-20T02:48:31.478Z,92.60
2023-01-20T02:49:31.449Z,92.40
2023-01-20T02:50:31.440Z,92.40
2023-01-20T02:51:31.431Z,92.40
2023-01-20T02:52:52.415Z,92.08
2023-01-20T02:53:31.403Z,92.50
2023-01-20T02:54:31.433Z,92.81
2023-01-20T02:55:31.389Z,92.71
2023-01-20T02:56:31.374Z,92.60
2023-01-20T02:57:31.343Z,92.60
2023-01-20T02:58:52.338Z,92.71
2023-01-20T02:59:31.317Z,92.81
2023-01-20T03:00:31.300Z,92.91
2023-01-20T03:01:31.365Z,93.02
2023-01-20T03:02:31.324Z,93.02
2023-01-20T03:03:31.282Z,93.02
2023-01-20T03:04:52.256Z,92.91
2023-01-20T03:05:31.262Z,92.91
2023-01-20T03:06:31.238Z,93.02
2023-01-20T03:07:31.215Z,92.91
2023-01-20T03:08:31.218Z,92.91
2023-01-20T03:09:31.184Z,93.02
2023-01-20T03:10:52.166Z,92.81
2023-01-20T03:11:31.163Z,93.02
2023-01-20T03:12:31.139Z,92.71
2023-01-20T03:13:31.132Z,92.77
2023-01-20T03:14:31.125Z,93.02
2023-01-20T03:15:31.105Z,92.35
2023-01-20T03:16:52.164Z,92.35
2023-01-20T03:17:31.096Z,92.60
2023-01-20T03:18:31.074Z,92.66
2023-01-20T03:19:31.060Z,92.81
2023-01-20T03:20:31.043Z,92.77
2023-01-20T03:21:31.042Z,92.91
2023-01-20T03:22:52.011Z,93.12
2023-01-20T03:23:31.049Z,92.97
2023-01-20T03:24:30.987Z,92.97
2023-01-20T03:25:30.968Z,92.91
2023-01-20T03:26:30.968Z,92.87
2023-01-20T03:27:30.954Z,92.97
2023-01-20T03:28:51.926Z,92.77
2023-01-20T03:29:30.962Z,92.97
2023-01-20T03:30:30.987Z,92.77
2023-01-20T03:31:31.051Z,92.77
2023-01-20T03:32:30.876Z,92.66
2023-01-20T03:33:30.863Z,92.66
2023-01-20T03:34:51.850Z,92.66
2023-01-20T03:35:30.837Z,92.35
2023-01-20T03:36:30.824Z,92.60
2023-01-20T03:37:30.809Z,92.50
2023-01-20T03:38:30.791Z,92.35
2023-01-20T03:39:30.791Z,92.50
2023-01-20T03:40:51.775Z,92.35
2023-01-20T03:41:30.765Z,92.40
2023-01-20T03:42:30.746Z,92.50
2023-01-20T03:43:30.736Z,92.91
2023-01-20T03:44:30.717Z,92.71
2023-01-20T03:45:30.702Z,92.50
2023-01-20T03:46:51.700Z,92.71
2023-01-20T03:47:30.686Z,92.91
2023-01-20T03:48:30.662Z,92.81
2023-01-20T03:49:30.661Z,92.91
2023-01-20T03:50:30.642Z,93.23
2023-01-20T03:51:30.632Z,92.91
2023-01-20T03:52:51.612Z,93.02
2023-01-20T03:53:30.603Z,93.02
2023-01-20T03:54:30.589Z,92.91
2023-01-20T03:55:30.567Z,92.29
2023-01-20T03:56:30.553Z,92.50
2023-01-20T03:57:30.548Z,92.85
2023-01-20T03:58:51.537Z,92.91
2023-01-20T03:59:30.519Z,93.23
2023-01-20T04:00:30.503Z,93.06
2023-01-20T04:01:30.575Z,92.96
2023-01-20T04:02:30.477Z,93.02
2023-01-20T04:03:30.484Z,93.27
2023-01-20T04:04:51.450Z,93.48
2023-01-20T04:05:30.441Z,93.37
2023-01-20T04:06:30.422Z,93.69
2023-01-20T04:07:30.416Z,93.44
2023-01-20T04:08:30.397Z,93.79
2023-01-20T04:09:30.384Z,94.00
2023-01-20T04:10:51.384Z,93.16
2023-01-20T04:11:30.355Z,94.00
2023-01-20T04:12:30.343Z,93.79
2023-01-20T04:13:30.332Z,93.59
2023-01-20T04:14:30.311Z,94.17
2023-01-20T04:15:30.599Z,94.10
2023-01-20T04:16:51.292Z,93.96
2023-01-20T04:17:30.280Z,94.17
2023-01-20T04:18:30.263Z,94.00
2023-01-20T04:19:30.246Z,93.69
2023-01-20T04:20:30.235Z,93.59
2023-01-20T04:21:30.224Z,93.59
2023-01-20T04:22:51.212Z,94.21
2023-01-20T04:23:30.202Z,94.42
2023-01-20T04:24:30.185Z,94.00
2023-01-20T04:25:30.176Z,94.42
2023-01-20T04:26:30.162Z,93.90
2023-01-20T04:27:30.148Z,94.21
2023-01-20T04:28:51.132Z,94.10
2023-01-20T04:29:30.125Z,94.42
2023-01-20T04:30:30.123Z,94.73
2023-01-20T04:31:31.559Z,95.04
2023-01-20T04:32:30.093Z,94.84
2023-01-20T04:33:30.091Z,94.73
2023-01-20T04:34:51.048Z,94.63
2023-01-20T04:35:30.033Z,94.84
2023-01-20T04:36:30.013Z,94.84
2023-01-20T04:37:30.020Z,95.04
2023-01-20T04:38:29.989Z,94.63
2023-01-20T04:39:29.977Z,94.31
2023-01-20T04:40:50.964Z,94.73
2023-01-20T04:41:29.953Z,94.52
2023-01-20T04:42:29.943Z,94.94
2023-01-20T04:43:29.923Z,94.84
2023-01-20T04:44:29.911Z,94.73
2023-01-20T04:45:29.903Z,94.84
2023-01-20T04:46:50.894Z,94.84
2023-01-20T04:47:29.939Z,94.94
2023-01-20T04:48:29.854Z,94.90
2023-01-20T04:49:29.846Z,94.06
2023-01-20T04:50:29.834Z,94.84
2023-01-20T04:51:29.815Z,94.84
2023-01-20T04:52:50.811Z,94.63
2023-01-20T04:53:29.797Z,94.73
2023-01-20T04:54:29.773Z,94.73
2023-01-20T04:55:29.765Z,94.63
2023-01-20T04:56:29.747Z,94.84
2023-01-20T04:57:29.735Z,94.94
2023-01-20T04:58:50.723Z,94.73
2023-01-20T04:59:29.738Z,94.94
2023-01-20T05:00:29.702Z,94.84
2023-01-20T05:01:29.780Z,94.63
2023-01-20T05:02:29.694Z,94.73
2023-01-20T05:03:29.652Z,94.63
2023-01-20T05:04:50.644Z,94.63
2023-01-20T05:05:29.632Z,94.52
2023-01-20T05:06:29.620Z,94.42
2023-01-20T05:07:29.602Z,94.90
2023-01-20T05:08:29.588Z,94.84
2023-01-20T05:09:29.575Z,94.94
2023-01-20T05:10:50.571Z,94.73
2023-01-20T05:11:29.545Z,94.63
2023-01-20T05:12:29.570Z,94.52
2023-01-20T05:13:29.541Z,94.63
2023-01-20T05:14:29.520Z,94.73
2023-01-20T05:15:29.500Z,94.73
2023-01-20T05:16:50.493Z,94.52
2023-01-20T05:17:29.470Z,94.52
2023-01-20T05:18:29.453Z,95.04
2023-01-20T05:19:29.439Z,94.52
2023-01-20T05:20:29.431Z,94.58
2023-01-20T05:21:29.413Z,94.52
2023-01-20T05:22:50.428Z,94.42
2023-01-20T05:23:29.382Z,94.21
2023-01-20T05:24:29.379Z,94.42
2023-01-20T05:25:29.378Z,94.63
2023-01-20T05:26:29.359Z,94.63
2023-01-20T05:27:29.337Z,94.52
2023-01-20T05:28:50.324Z,94.94
2023-01-20T05:29:29.309Z,94.31
2023-01-20T05:30:29.419Z,94.21
2023-01-20T05:31:29.358Z,94.88
2023-01-20T05:32:29.294Z,94.63
2023-01-20T05:33:29.270Z,94.73
2023-01-20T05:34:50.247Z,94.35
2023-01-20T05:35:29.230Z,94.25
2023-01-20T05:36:29.220Z,93.84
2023-01-20T05:37:29.196Z,94.46
2023-01-20T05:38:29.193Z,94.25
2023-01-20T05:39:29.173Z,94.73
2023-01-20T05:40:50.189Z,94.98
2023-01-20T05:41:29.146Z,95.09
2023-01-20T05:42:29.141Z,95.29
2023-01-20T05:43:29.124Z,95.09
2023-01-20T05:44:29.112Z,95.19
2023-01-20T05:45:29.101Z,95.29
2023-01-20T05:46:50.091Z,95.29
2023-01-20T05:47:29.063Z,95.09
2023-01-20T05:48:29.057Z,95.29
2023-01-20T05:49:29.039Z,95.19
2023-01-20T05:50:29.050Z,94.67
2023-01-20T05:51:29.016Z,94.78
2023-01-20T05:52:50.005Z,94.67
2023-01-20T05:53:29.021Z,94.67
2023-01-20T05:54:28.978Z,94.88
2023-01-20T05:55:28.968Z,94.88
2023-01-20T05:56:28.943Z,95.09
2023-01-20T05:57:28.937Z,94.92
2023-01-20T05:58:49.933Z,94.61
2023-01-20T05:59:28.906Z,94.61
2023-01-20T06:00:28.895Z,95.13
2023-01-20T06:01:28.903Z,95.40
2023-01-20T06:02:28.905Z,95.23
2023-01-20T06:03:28.885Z,95.34
2023-01-20T06:04:49.838Z,95.23
2023-01-20T06:05:28.827Z,94.61
2023-01-20T06:06:28.812Z,94.67
2023-01-20T06:07:28.819Z,95.23
2023-01-20T06:08:28.781Z,95.34
2023-01-20T06:09:28.771Z,95.03
2023-01-20T06:10:50.652Z,94.71
2023-01-20T06:11:28.760Z,95.44
2023-01-20T06:12:28.727Z,95.34
2023-01-20T06:13:28.714Z,95.34
2023-01-20T06:14:28.701Z,95.23
2023-01-20T06:15:28.691Z,95.13
2023-01-20T06:16:49.676Z,95.23
2023-01-20T06:17:28.664Z,95.19
2023-01-20T06:18:28.742Z,95.34
2023-01-20T06:19:28.636Z,95.03
2023-01-20T06:20:28.623Z,94.98
2023-01-20T06:21:28.615Z,95.13
2023-01-20T06:22:49.601Z,95.40
2023-01-20T06:23:28.588Z,94.78
2023-01-20T06:24:28.571Z,95.09
2023-01-20T06:25:28.587Z,95.23
2023-01-20T06:26:28.539Z,94.92
2023-01-20T06:27:28.534Z,95.13
2023-01-20T06:28:49.532Z,95.23
2023-01-20T06:29:28.509Z,95.03
2023-01-20T06:30:28.486Z,94.61
2023-01-20T06:31:28.541Z,94.82
2023-01-20T06:32:28.457Z,95.44
2023-01-20T06:33:28.446Z,94.71
2023-01-20T06:34:49.438Z,95.03
2023-01-20T06:35:28.446Z,95.03
2023-01-20T06:36:28.418Z,95.38
2023-01-20T06:37:28.392Z,95.07
2023-01-20T06:38:28.385Z,94.61
2023-01-20T06:39:28.368Z,94.61
2023-01-20T06:40:49.361Z,95.49
2023-01-20T06:41:28.337Z,94.61
2023-01-20T06:42:28.322Z,95.03
2023-01-20T06:43:28.321Z,95.34
2023-01-20T06:44:28.304Z,95.38
2023-01-20T06:45:28.284Z,95.17
2023-01-20T06:46:49.305Z,94.96
2023-01-20T06:47:28.259Z,94.76
2023-01-20T06:48:28.240Z,95.28
2023-01-20T06:49:28.235Z,95.59
2023-01-20T06:50:28.216Z,95.28
2023-01-20T06:51:28.203Z,95.07
2023-01-20T06:52:49.189Z,95.28
2023-01-20T06:53:28.174Z,95.07
2023-01-20T06:54:28.167Z,94.71
2023-01-20T06:55:28.150Z,94.65
2023-01-20T06:56:28.144Z,95.17
2023-01-20T06:57:28.121Z,95.49
2023-01-20T06:58:49.128Z,95.49
2023-01-20T06:59:28.096Z,95.59
2023-01-20T07:00:28.190Z,95.59
2023-01-20T07:01:28.303Z,95.49
2023-01-20T07:02:28.169Z,95.59
2023-01-20T07:03:28.042Z,95.49
2023-01-20T07:04:49.028Z,95.07
2023-01-20T07:05:28.014Z,95.28
2023-01-20T07:06:28.011Z,95.17
2023-01-20T07:07:28.004Z,95.07
2023-01-20T07:08:27.970Z,95.49
2023-01-20T07:09:27.953Z,95.49
2023-01-20T07:10:48.950Z,95.07
2023-01-20T07:11:27.961Z,94.76
2023-01-20T07:12:27.911Z,94.86
2023-01-20T07:13:27.903Z,95.07
2023-01-20T07:14:27.887Z,95.17
2023-01-20T07:15:27.886Z,95.07
2023-01-20T07:16:49.005Z,95.49
2023-01-20T07:17:27.848Z,95.28
2023-01-20T07:18:27.833Z,95.28
2023-01-20T07:19:27.819Z,95.38
2023-01-20T07:20:27.804Z,95.38
2023-01-20T07:21:27.797Z,95.28
2023-01-20T07:22:48.787Z,95.38
2023-01-20T07:23:27.764Z,95.07
2023-01-20T07:24:27.750Z,95.38
2023-01-20T07:25:27.744Z,95.07
2023-01-20T07:26:27.721Z,95.07
2023-01-20T07:27:27.710Z,95.07
2023-01-20T07:28:48.699Z,95.07
2023-01-20T07:29:27.690Z,94.65
2023-01-20T07:30:27.686Z,94.61
2023-01-20T07:31:27.758Z,94.61
2023-01-20T07:32:27.643Z,94.86
2023-01-20T07:33:27.627Z,94.92
2023-01-20T07:34:50.214Z,94.92
2023-01-20T07:35:27.597Z,95.13
2023-01-20T07:36:27.593Z,95.07
2023-01-20T07:37:27.586Z,95.28
2023-01-20T07:38:27.557Z,95.23
2023-01-20T07:39:27.547Z,95.44
2023-01-20T07:40:48.538Z,95.17
2023-01-20T07:41:27.522Z,94.76
2023-01-20T07:42:27.519Z,95.70
2023-01-20T07:43:27.496Z,96.22
2023-01-20T07:44:27.485Z,95.90
2023-01-20T07:45:27.483Z,96.01
2023-01-20T07:46:48.453Z,96.01
2023-01-20T07:47:27.465Z,95.90
2023-01-20T07:48:27.420Z,96.11
2023-01-20T07:49:27.415Z,95.90
2023-01-20T07:50:27.461Z,95.90
2023-01-20T07:51:27.377Z,95.80
2023-01-20T07:52:48.366Z,95.70
2023-01-20T07:53:27.354Z,95.80
2023-01-20T07:54:27.343Z,95.80
2023-01-20T07:55:27.327Z,94.86
2023-01-20T07:56:27.311Z,95.38
2023-01-20T07:57:27.297Z,95.17
2023-01-20T07:58:48.289Z,94.65
2023-01-20T07:59:27.278Z,95.38
2023-01-20T08:00:27.261Z,96.22
2023-01-20T08:01:27.358Z,96.01
2023-01-20T08:02:27.237Z,95.07
2023-01-20T08:03:27.541Z,95.43
2023-01-20T08:04:48.235Z,95.28
2023-01-20T08:05:27.194Z,95.43
2023-01-20T08:06:27.174Z,95.43
2023-01-20T08:07:27.162Z,95.21
2023-01-20T08:08:27.148Z,95.11
2023-01-20T08:09:27.144Z,95.11
2023-01-20T08:10:48.148Z,95.32
2023-01-20T08:11:27.112Z,95.32
2023-01-20T08:12:27.097Z,95.64
2023-01-20T08:13:27.083Z,95.53
2023-01-20T08:14:27.082Z,95.43
2023-01-20T08:15:27.049Z,95.49
2023-01-20T08:16:48.086Z,95.11
2023-01-20T08:17:27.026Z,94.80
2023-01-20T08:18:27.009Z,95.11
2023-01-20T08:19:26.988Z,95.32
2023-01-20T08:20:26.988Z,95.53
2023-01-20T08:21:26.962Z,95.84
2023-01-20T08:22:47.958Z,95.95
2023-01-20T08:23:26.938Z,95.84
2023-01-20T08:24:26.966Z,95.84
2023-01-20T08:25:26.911Z,95.84
2023-01-20T08:26:26.896Z,96.05
2023-01-20T08:27:26.880Z,95.95
2023-01-20T08:28:47.888Z,95.74
2023-01-20T08:29:26.852Z,95.84
2023-01-20T08:30:26.929Z,95.49
2023-01-20T08:31:26.905Z,94.80
2023-01-20T08:32:26.807Z,95.43
2023-01-20T08:33:26.792Z,95.53
2023-01-20T08:34:47.793Z,95.70
2023-01-20T08:35:26.769Z,95.74
2023-01-20T08:36:26.759Z,95.53
2023-01-20T08:37:26.739Z,95.70
2023-01-20T08:38:26.732Z,95.70
2023-01-20T08:39:26.722Z,95.38
2023-01-20T08:40:47.753Z,95.17
2023-01-20T08:41:26.718Z,95.07
2023-01-20T08:42:26.672Z,95.13
2023-01-20T08:43:26.658Z,95.17
2023-01-20T08:44:26.646Z,94.92
2023-01-20T08:45:26.638Z,94.09
2023-01-20T08:46:47.619Z,94.71
2023-01-20T08:47:26.636Z,94.34
2023-01-20T08:48:26.597Z,93.88
2023-01-20T08:49:26.572Z,94.40
2023-01-20T08:50:26.570Z,94.09
2023-01-20T08:51:26.591Z,94.19
2023-01-20T08:52:47.536Z,94.09
2023-01-20T08:53:26.545Z,94.09
2023-01-20T08:54:26.511Z,94.61
2023-01-20T08:55:26.499Z,93.88
2023-01-20T08:56:26.489Z,93.77
2023-01-20T08:57:26.463Z,94.71
2023-01-20T08:58:47.456Z,94.61
2023-01-20T08:59:26.437Z,93.94
2023-01-20T09:00:26.428Z,93.84
2023-01-20T09:01:26.428Z,94.15
2023-01-20T09:02:26.455Z,94.15
2023-01-20T09:03:26.401Z,93.88
2023-01-20T09:04:47.375Z,94.25
2023-01-20T09:05:26.358Z,94.25
2023-01-20T09:06:26.348Z,93.94
2023-01-20T09:07:26.333Z,94.04
2023-01-20T09:08:26.317Z,93.94
2023-01-20T09:09:26.302Z,93.73
2023-01-20T09:10:47.297Z,93.52
2023-01-20T09:11:26.362Z,93.63
2023-01-20T09:12:26.279Z,93.63
2023-01-20T09:13:26.242Z,93.63
2023-01-20T09:14:26.236Z,93.73
2023-01-20T09:15:26.215Z,93.73
2023-01-20T09:16:47.215Z,93.52
2023-01-20T09:17:26.193Z,93.00
2023-01-20T09:18:26.184Z,93.10
2023-01-20T09:19:26.173Z,93.31
2023-01-20T09:20:26.162Z,93.37
2023-01-20T09:21:26.141Z,93.10
2023-01-20T09:22:47.132Z,92.79
2023-01-20T09:23:26.118Z,92.79
2023-01-20T09:24:26.108Z,92.90
2023-01-20T09:25:26.105Z,93.10
2023-01-20T09:26:36.287Z,93.21
2023-01-20T09:27:26.054Z,93.21
2023-01-20T09:28:47.053Z,93.31
2023-01-20T09:29:26.032Z,93.48
2023-01-20T09:30:26.017Z,93.63
2023-01-20T09:31:26.054Z,93.79
2023-01-20T09:32:26.000Z,93.37
2023-01-20T09:33:25.978Z,93.16
2023-01-20T09:34:46.978Z,92.75
2023-01-20T09:35:25.947Z,92.44
2023-01-20T09:36:28.035Z,92.33
2023-01-20T09:37:25.923Z,92.02
2023-01-20T09:38:25.920Z,92.12
2023-01-20T09:39:25.898Z,92.33
2023-01-20T09:40:46.886Z,92.22
2023-01-20T09:41:25.873Z,92.22
2023-01-20T09:42:25.874Z,91.91
2023-01-20T09:43:25.845Z,91.71
2023-01-20T09:44:25.834Z,91.77
2023-01-20T09:45:25.832Z,91.91
2023-01-20T09:46:46.811Z,91.46
2023-01-20T09:47:25.801Z,91.81
2023-01-20T09:48:25.780Z,91.77
2023-01-20T09:49:25.757Z,91.25
2023-01-20T09:50:25.758Z,91.46
2023-01-20T09:51:25.735Z,91.35
2023-01-20T09:52:46.729Z,91.77
2023-01-20T09:53:25.718Z,91.66
2023-01-20T09:54:25.699Z,91.77
2023-01-20T09:55:25.688Z,91.25
2023-01-20T09:56:25.681Z,91.52
2023-01-20T09:57:25.659Z,90.93
2023-01-20T09:58:46.654Z,90.89
2023-01-20T09:59:25.625Z,90.52
2023-01-20T10:00:25.640Z,90.62
2023-01-20T10:01:25.653Z,90.52
2023-01-20T10:02:25.605Z,91.04
2023-01-20T10:03:25.584Z,91.04
2023-01-20T10:04:46.575Z,90.83
2023-01-20T10:05:25.593Z,91.14
2023-01-20T10:06:25.536Z,90.93
2023-01-20T10:07:25.531Z,90.62
2023-01-20T10:08:25.525Z,90.83
2023-01-20T10:09:25.524Z,90.72
2023-01-20T10:10:46.504Z,90.83
2023-01-20T10:11:25.520Z,90.83
2023-01-20T10:12:25.463Z,91.04
2023-01-20T10:13:25.453Z,90.72
2023-01-20T10:14:25.431Z,90.52
2023-01-20T10:15:25.430Z,90.52
2023-01-20T10:16:46.410Z,90.72
2023-01-20T10:17:25.391Z,90.83
2023-01-20T10:18:25.382Z,90.83
2023-01-20T10:19:25.373Z,90.72
2023-01-20T10:20:27.883Z,91.14
2023-01-20T10:21:25.345Z,90.72
2023-01-20T10:22:46.325Z,91.04
2023-01-20T10:23:25.312Z,90.26
2023-01-20T10:24:25.293Z,90.58
2023-01-20T10:25:25.290Z,90.16
2023-01-20T10:26:25.273Z,90.06
2023-01-20T10:27:25.266Z,90.26
2023-01-20T10:28:46.250Z,89.32
2023-01-20T10:29:25.230Z,89.70
2023-01-20T10:30:25.240Z,89.50
2023-01-20T10:31:25.267Z,89.08
2023-01-20T10:32:25.192Z,89.60
2023-01-20T10:33:25.178Z,89.81
2023-01-20T10:34:46.185Z,89.81
2023-01-20T10:35:25.153Z,89.08
2023-01-20T10:36:25.134Z,89.60
2023-01-20T10:37:25.133Z,89.81
2023-01-20T10:38:25.109Z,89.39
2023-01-20T10:39:25.103Z,89.14
2023-01-20T10:40:46.105Z,89.45
2023-01-20T10:41:25.199Z,89.04
2023-01-20T10:42:25.071Z,87.93
2023-01-20T10:43:25.049Z,88.35
2023-01-20T10:44:25.041Z,88.56
2023-01-20T10:45:25.023Z,88.52
2023-01-20T10:46:46.027Z,88.35
2023-01-20T10:47:24.999Z,88.42
2023-01-20T10:48:24.987Z,88.45
2023-01-20T10:49:24.973Z,88.62
2023-01-20T10:50:25.003Z,88.20
2023-01-20T10:51:24.945Z,88.31
2023-01-20T10:52:45.927Z,88.56
2023-01-20T10:53:24.921Z,88.73
2023-01-20T10:54:24.902Z,88.62
2023-01-20T10:55:24.889Z,87.89
2023-01-20T10:56:24.883Z,87.37
2023-01-20T10:57:24.861Z,87.37
2023-01-20T10:58:45.850Z,87.37
2023-01-20T10:59:24.838Z,86.85
2023-01-20T11:00:24.832Z,86.79
2023-01-20T11:01:24.874Z,87.41
2023-01-20T11:02:24.835Z,88.66
2023-01-20T11:03:24.876Z,88.49
2023-01-20T11:04:45.774Z,88.39
2023-01-20T11:05:24.791Z,88.08
2023-01-20T11:06:24.746Z,89.54
2023-01-20T11:07:24.729Z,89.39
2023-01-20T11:08:24.737Z,89.70
2023-01-20T11:09:24.701Z,89.39
2023-01-20T11:10:45.707Z,88.35
2023-01-20T11:11:24.681Z,88.35
2023-01-20T11:12:24.705Z,87.93
2023-01-20T11:13:24.652Z,88.14
2023-01-20T11:14:26.140Z,88.35
2023-01-20T11:15:24.623Z,88.62
2023-01-20T11:16:45.649Z,88.73
2023-01-20T11:17:24.605Z,88.73
2023-01-20T11:18:24.589Z,88.20
2023-01-20T11:19:24.573Z,88.73
2023-01-20T11:20:24.563Z,87.68
2023-01-20T11:21:24.543Z,86.54
2023-01-20T11:22:45.542Z,86.43
2023-01-20T11:23:24.527Z,86.40
2023-01-20T11:24:24.509Z,86.22
2023-01-20T11:25:24.498Z,86.33
2023-01-20T11:26:27.685Z,86.54
2023-01-20T11:27:24.477Z,86.33
2023-01-20T11:28:45.470Z,86.43
2023-01-20T11:29:24.446Z,87.06
2023-01-20T11:30:24.445Z,86.33
2023-01-20T11:31:24.460Z,86.22
2023-01-20T11:32:25.250Z,86.75
2023-01-20T11:33:24.433Z,86.22
2023-01-20T11:34:45.381Z,86.75
2023-01-20T11:35:24.366Z,87.16
2023-01-20T11:36:24.358Z,87.65
2023-01-20T11:37:24.336Z,86.60
2023-01-20T11:38:24.330Z,87.06
2023-01-20T11:39:24.308Z,86.29
2023-01-20T11:40:45.301Z,86.81
2023-01-20T11:41:24.284Z,86.29
2023-01-20T11:42:24.274Z,87.06
2023-01-20T11:43:24.266Z,86.71
2023-01-20T11:44:24.252Z,86.81
2023-01-20T11:45:24.273Z,86.81
2023-01-20T11:46:45.251Z,86.15
2023-01-20T11:47:24.215Z,86.29
2023-01-20T11:48:24.197Z,86.25
2023-01-20T11:49:24.177Z,86.46
2023-01-20T11:50:24.181Z,86.35
2023-01-20T11:51:24.220Z,85.73
2023-01-20T11:52:45.168Z,85.73
2023-01-20T11:53:24.181Z,86.04
2023-01-20T11:54:24.141Z,86.00
2023-01-20T11:55:24.123Z,86.25
2023-01-20T11:56:24.098Z,85.80
2023-01-20T11:57:24.118Z,85.49
2023-01-20T11:58:45.082Z,85.38
2023-01-20T11:59:24.058Z,84.90
2023-01-20T12:00:24.039Z,85.04
2023-01-20T12:01:24.031Z,85.04
2023-01-20T12:02:24.020Z,85.67
2023-01-20T12:03:24.011Z,85.25
2023-01-20T12:04:44.998Z,85.77
2023-01-20T12:05:23.976Z,85.46
2023-01-20T12:06:23.970Z,85.46
2023-01-20T12:07:23.949Z,85.88
2023-01-20T12:08:23.961Z,85.88
2023-01-20T12:09:23.930Z,85.56
2023-01-20T12:10:44.930Z,85.77
2023-01-20T12:11:23.920Z,85.77
2023-01-20T12:12:23.890Z,85.73
2023-01-20T12:13:23.883Z,85.83
2023-01-20T12:14:23.871Z,85.94
2023-01-20T12:15:23.845Z,85.94
2023-01-20T12:16:44.873Z,86.15
2023-01-20T12:17:23.822Z,85.83
2023-01-20T12:18:23.817Z,85.83
2023-01-20T12:19:23.807Z,85.38
2023-01-20T12:20:23.790Z,84.55
2023-01-20T12:21:23.791Z,83.92
2023-01-20T12:22:44.782Z,85.38
2023-01-20T12:23:23.753Z,85.17
2023-01-20T12:24:30.105Z,85.06
2023-01-20T12:25:23.733Z,85.42
2023-01-20T12:26:23.725Z,85.73
2023-01-20T12:27:23.698Z,85.21
2023-01-20T12:28:44.691Z,84.73
2023-01-20T12:29:23.668Z,85.14
2023-01-20T12:30:23.840Z,85.35
2023-01-20T12:31:23.686Z,85.14
2023-01-20T12:32:23.637Z,85.67
2023-01-20T12:33:23.636Z,86.08
2023-01-20T12:34:44.812Z,86.19
2023-01-20T12:35:23.602Z,86.19
2023-01-20T12:36:23.582Z,85.88
2023-01-20T12:37:23.563Z,85.98
2023-01-20T12:38:23.564Z,86.19
2023-01-20T12:39:23.539Z,85.67
2023-01-20T12:40:44.535Z,86.08
2023-01-20T12:41:23.513Z,85.67
2023-01-20T12:42:23.506Z,86.29
2023-01-20T12:43:23.488Z,85.56
2023-01-20T12:44:23.484Z,85.88
2023-01-20T12:45:23.463Z,85.77
2023-01-20T12:46:44.455Z,86.65
2023-01-20T12:47:23.460Z,86.33
2023-01-20T12:48:23.442Z,86.33
2023-01-20T12:49:23.415Z,86.54
2023-01-20T12:50:23.416Z,86.43
2023-01-20T12:51:23.416Z,86.85
2023-01-20T12:52:44.423Z,86.65